Time;durP1;ratioP1;P1;durP2;ratioP2;P2;SDS_P1;SDS_P2;PMS_P1;PMS_P2;Temp;Humidity;BMP_temperature;BMP_pressure;BME280_temperature;BME280_humidity;BME280_pressure;Samples;Min_cycle;Max_cycle;Signal;HPM_P1;HPM_P2
2022/04/22 00:02:19;;;;;;;10.48;7.50;;;;;;;;;;5076608;28;20016;-79
2022/04/22 00:04:44;;;;;;;22.40;14.23;;;;;;;;;;5076363;28;20055;-74
2022/04/22 00:07:10;;;;;;;17.08;10.95;;;;;;;;;;5078276;28;20028;-70
2022/04/22 00:09:35;;;;;;;29.58;18.85;;;;;;;;;;5073379;28;20028;-80
2022/04/22 00:12:00;;;;;;;36.17;21.88;;;;;;;;;;5078963;28;20039;-73
2022/04/22 00:14:26;;;;;;;23.92;15.50;;;;;;;;;;5075901;28;20092;-71
2022/04/22 00:16:51;;;;;;;27.13;19.58;;;;;;;;;;5076548;28;20042;-71
2022/04/22 00:19:17;;;;;;;22.90;17.08;;;;;;;;;;5071311;28;20449;-70
2022/04/22 00:21:43;;;;;;;30.25;19.77;;;;;;;;;;5081106;28;20024;-69
2022/04/22 00:24:08;;;;;;;26.63;17.55;;;;;;;;;;5080691;28;20478;-73
2022/04/22 00:26:34;;;;;;;15.88;10.68;;;;;;;;;;5082899;28;20052;-71
2022/04/22 00:28:59;;;;;;;17.73;11.65;;;;;;;;;;5074996;28;20124;-70
2022/04/22 00:31:24;;;;;;;19.80;12.95;;;;;;;;;;5075928;28;20036;-78
2022/04/22 00:33:50;;;;;;;24.63;14.90;;;;;;;;;;5073311;28;20137;-73
2022/04/22 00:36:15;;;;;;;21.58;13.02;;;;;;;;;;5084082;28;20028;-70
2022/04/22 00:38:41;;;;;;;15.70;9.57;;;;;;;;;;5078571;28;20036;-70
2022/04/22 00:41:06;;;;;;;14.70;10.48;;;;;;;;;;5080596;28;20032;-69
2022/04/22 00:43:42;;;;;;;15.70;11.32;;;;;;;;;;5078961;28;20039;-71
2022/04/22 00:46:07;;;;;;;12.13;9.05;;;;;;;;;;5075487;28;20115;-72
2022/04/22 00:48:32;;;;;;;13.80;9.90;;;;;;;;;;5078696;28;20135;-71
2022/04/22 00:50:58;;;;;;;13.23;9.70;;;;;;;;;;5079348;28;20059;-69
2022/04/22 00:53:23;;;;;;;12.05;9.30;;;;;;;;;;5084964;28;20053;-69
2022/04/22 00:55:48;;;;;;;11.40;9.52;;;;;;;;;;5085458;28;20039;-70
2022/04/22 00:58:14;;;;;;;15.00;10.02;;;;;;;;;;5081870;28;20020;-70
2022/04/22 01:00:40;;;;;;;17.20;12.20;;;;;;;;;;5072279;28;20450;-71
2022/04/22 01:03:05;;;;;;;17.20;11.38;;;;;;;;;;5080730;28;20441;-70
2022/04/22 01:11:00;;;;;;;13.13;9.25;;;;;;;;;;5082330;28;20096;-69
2022/04/22 01:13:26;;;;;;;14.40;10.77;;;;;;;;;;5081995;28;20031;-72
2022/04/22 01:15:51;;;;;;;14.30;11.65;;;;;;;;;;5069177;28;20024;-76
2022/04/22 01:18:17;;;;;;;12.57;10.77;;;;;;;;;;5075573;28;20060;-72
2022/04/22 01:20:43;;;;;;;11.65;9.38;;;;;;;;;;5077530;28;20453;-72
2022/04/22 01:23:08;;;;;;;39.15;23.92;;;;;;;;;;5083712;28;20081;-71
2022/04/22 01:25:33;;;;;;;17.08;12.02;;;;;;;;;;5083440;28;20039;-72
2022/04/22 01:27:59;;;;;;;13.98;10.55;;;;;;;;;;5084034;28;20080;-70
2022/04/22 01:30:25;;;;;;;18.10;12.98;;;;;;;;;;5084042;28;20024;-71
2022/04/22 01:32:51;;;;;;;16.65;11.00;;;;;;;;;;5083267;28;20027;-72
2022/04/22 01:35:19;;;;;;;13.48;11.13;;;;;;;;;;5083049;28;20078;-73
2022/04/22 01:37:45;;;;;;;15.43;10.35;;;;;;;;;;5081205;28;20055;-70
2022/04/22 01:40:11;;;;;;;14.55;11.00;;;;;;;;;;5084050;28;20504;-70
2022/04/22 01:42:36;;;;;;;20.50;11.75;;;;;;;;;;5080429;28;20389;-77
2022/04/22 01:45:02;;;;;;;13.00;10.10;;;;;;;;;;5082081;28;20430;-72
2022/04/22 01:47:29;;;;;;;13.52;8.90;;;;;;;;;;5082394;28;20458;-74
2022/04/22 01:49:54;;;;;;;13.95;10.18;;;;;;;;;;5083344;28;20027;-70
2022/04/22 01:52:20;;;;;;;12.80;9.13;;;;;;;;;;5083033;28;20035;-70
2022/04/22 01:54:45;;;;;;;12.93;9.40;;;;;;;;;;5083044;28;20488;-70
2022/04/22 01:57:10;;;;;;;15.13;11.38;;;;;;;;;;5083741;28;20032;-75
2022/04/22 01:59:36;;;;;;;14.15;9.45;;;;;;;;;;5083235;28;20327;-71
2022/04/22 02:02:01;;;;;;;16.35;11.57;;;;;;;;;;5083437;28;20462;-79
2022/04/22 02:04:26;;;;;;;13.35;9.40;;;;;;;;;;5083494;28;20452;-72
2022/04/22 02:06:52;;;;;;;8.77;7.03;;;;;;;;;;5081137;28;20454;-70
2022/04/22 02:09:17;;;;;;;13.02;10.00;;;;;;;;;;5081687;28;20111;-71
2022/04/22 02:11:43;;;;;;;13.02;9.82;;;;;;;;;;5083038;28;20427;-72
2022/04/22 02:14:08;;;;;;;10.25;9.05;;;;;;;;;;5083066;28;20028;-70
2022/04/22 02:16:33;;;;;;;9.10;7.40;;;;;;;;;;5083354;28;20026;-70
2022/04/22 02:18:59;;;;;;;11.35;8.10;;;;;;;;;;5080155;28;20108;-69
2022/04/22 02:21:24;;;;;;;11.40;8.90;;;;;;;;;;5076348;28;20527;-73
2022/04/22 02:23:49;;;;;;;14.20;8.00;;;;;;;;;;5083402;28;20024;-73
2022/04/22 02:26:15;;;;;;;9.02;6.38;;;;;;;;;;5082135;28;20119;-74
2022/04/22 02:28:40;;;;;;;13.95;9.65;;;;;;;;;;5065187;28;20078;-70
2022/04/22 02:31:06;;;;;;;14.55;11.05;;;;;;;;;;5082870;28;20077;-75
2022/04/22 02:33:36;;;;;;;11.80;8.68;;;;;;;;;;5083433;28;20331;-69
2022/04/22 02:36:03;;;;;;;11.25;8.90;;;;;;;;;;5082168;28;20024;-71
2022/04/22 02:38:29;;;;;;;14.45;10.10;;;;;;;;;;5082156;28;20040;-70
2022/04/22 02:46:24;;;;;;;8.57;4.78;;;;;;;;;;5082722;28;20047;-70
2022/04/22 02:48:50;;;;;;;10.13;6.25;;;;;;;;;;5082115;28;20051;-72
2022/04/22 02:51:15;;;;;;;27.33;15.93;;;;;;;;;;5081374;28;20033;-75
2022/04/22 02:53:40;;;;;;;28.30;17.33;;;;;;;;;;5080743;28;20043;-70
2022/04/22 02:56:07;;;;;;;27.23;17.25;;;;;;;;;;5082624;28;20205;-76
2022/04/22 02:58:33;;;;;;;20.67;14.10;;;;;;;;;;5081716;28;20047;-72
2022/04/22 03:00:58;;;;;;;15.80;10.90;;;;;;;;;;5080232;28;20586;-71
2022/04/22 03:03:24;;;;;;;16.50;10.60;;;;;;;;;;5080599;28;20031;-71
2022/04/22 03:05:50;;;;;;;15.48;11.30;;;;;;;;;;5081116;28;20047;-70
2022/04/22 03:08:16;;;;;;;13.80;10.10;;;;;;;;;;5081715;28;20031;-70
2022/04/22 03:10:41;;;;;;;15.95;11.48;;;;;;;;;;5082142;28;20035;-70
2022/04/22 03:13:06;;;;;;;14.95;10.27;;;;;;;;;;5081989;28;20038;-72
2022/04/22 03:15:33;;;;;;;11.30;8.43;;;;;;;;;;5080666;28;20024;-72
2022/04/22 03:17:59;;;;;;;9.98;7.32;;;;;;;;;;5081035;28;20442;-76
2022/04/22 03:20:25;;;;;;;11.98;6.47;;;;;;;;;;5079417;28;20028;-70
2022/04/22 03:22:50;;;;;;;9.40;7.22;;;;;;;;;;5082032;28;20024;-70
2022/04/22 03:25:19;;;;;;;6.53;5.63;;;;;;;;;;5081018;28;20111;-70
2022/04/22 03:27:44;;;;;;;9.95;7.13;;;;;;;;;;5081165;28;20035;-74
2022/04/22 03:30:10;;;;;;;7.75;6.32;;;;;;;;;;5081859;28;20040;-74
2022/04/22 03:32:35;;;;;;;9.25;6.82;;;;;;;;;;5081751;28;20094;-69
2022/04/22 03:35:00;;;;;;;12.50;7.28;;;;;;;;;;5081431;28;20036;-73
2022/04/22 03:37:26;;;;;;;11.90;7.40;;;;;;;;;;5082757;28;20032;-70
2022/04/22 03:39:51;;;;;;;9.27;7.28;;;;;;;;;;5080065;28;20028;-81
2022/04/22 03:42:16;;;;;;;10.27;7.80;;;;;;;;;;5079903;28;20027;-77
2022/04/22 03:44:42;;;;;;;15.68;12.20;;;;;;;;;;5081374;28;20024;-70
2022/04/22 03:47:07;;;;;;;14.90;10.82;;;;;;;;;;5080459;28;20123;-74
2022/04/22 03:49:36;;;;;;;13.38;9.38;;;;;;;;;;5081520;28;20032;-70
2022/04/22 03:52:01;;;;;;;23.90;14.23;;;;;;;;;;5082430;28;20024;-69
2022/04/22 03:54:26;;;;;;;19.25;13.25;;;;;;;;;;5081272;28;20104;-74
2022/04/22 03:59:35;;;;;;;18.35;11.98;;;;;;;;;;5081482;28;20031;-79
2022/04/22 04:02:01;;;;;;;17.63;10.30;;;;;;;;;;5084474;28;20027;-73
2022/04/22 04:04:26;;;;;;;17.75;12.77;;;;;;;;;;5084040;28;20043;-76
2022/04/22 04:06:52;;;;;;;15.82;11.02;;;;;;;;;;5083363;28;20424;-71
2022/04/22 04:17:34;;;;;;;16.67;12.93;;;;;;;;;;5076781;28;20031;-76
2022/04/22 04:25:27;;;;;;;16.90;11.48;;;;;;;;;;5079243;28;20042;-79
2022/04/22 04:27:52;;;;;;;15.98;12.43;;;;;;;;;;5076400;28;20032;-75
2022/04/22 04:30:19;;;;;;;17.55;12.30;;;;;;;;;;5081089;28;20379;-71
2022/04/22 04:32:45;;;;;;;18.95;13.27;;;;;;;;;;5081047;28;20043;-69
2022/04/22 04:35:10;;;;;;;23.52;15.55;;;;;;;;;;5083273;28;20028;-70
2022/04/22 04:37:39;;;;;;;19.00;14.50;;;;;;;;;;5084363;28;20032;-73
2022/04/22 04:40:05;;;;;;;20.42;14.98;;;;;;;;;;5078937;28;20455;-70
2022/04/22 04:42:30;;;;;;;23.33;16.73;;;;;;;;;;5083917;28;20032;-73
2022/04/22 04:44:55;;;;;;;21.90;16.25;;;;;;;;;;5082706;28;20039;-72
2022/04/22 04:47:21;;;;;;;23.25;19.05;;;;;;;;;;5084377;28;20016;-70
2022/04/22 04:49:46;;;;;;;42.78;33.42;;;;;;;;;;5077032;28;20098;-72
2022/04/22 04:52:12;;;;;;;45.58;35.95;;;;;;;;;;5079522;28;20063;-76
2022/04/22 04:54:37;;;;;;;47.28;35.80;;;;;;;;;;5078449;28;20020;-70
2022/04/22 04:57:03;;;;;;;42.50;32.20;;;;;;;;;;5075251;28;20027;-76
2022/04/22 04:59:28;;;;;;;39.47;29.42;;;;;;;;;;5075995;28;20027;-69
2022/04/22 05:01:53;;;;;;;47.75;29.02;;;;;;;;;;5081594;28;20031;-70
2022/04/22 05:04:19;;;;;;;44.33;30.45;;;;;;;;;;5085017;28;20036;-73
2022/04/22 05:06:44;;;;;;;39.33;27.80;;;;;;;;;;5085085;28;20020;-70
2022/04/22 05:09:09;;;;;;;35.47;22.92;;;;;;;;;;5083682;28;20042;-75
2022/04/22 05:11:35;;;;;;;31.50;20.55;;;;;;;;;;5084328;28;20036;-69
2022/04/22 05:14:01;;;;;;;36.25;25.80;;;;;;;;;;5084089;28;20324;-75
2022/04/22 05:16:26;;;;;;;37.90;26.95;;;;;;;;;;5084950;28;20028;-73
2022/04/22 05:18:52;;;;;;;36.42;26.98;;;;;;;;;;5083859;28;20477;-70
2022/04/22 05:21:17;;;;;;;44.72;29.27;;;;;;;;;;5085258;28;20020;-70
2022/04/22 05:23:42;;;;;;;43.45;27.42;;;;;;;;;;5084088;28;20039;-71
2022/04/22 05:26:07;;;;;;;38.92;24.10;;;;;;;;;;5083130;28;20085;-68
2022/04/22 05:28:33;;;;;;;34.95;19.90;;;;;;;;;;5084206;28;20097;-69
2022/04/22 05:33:43;;;;;;;54.20;31.38;;;;;;;;;;5082814;28;20034;-70
2022/04/22 05:36:09;;;;;;;54.42;29.90;;;;;;;;;;5083831;28;20081;-72
2022/04/22 05:38:34;;;;;;;45.85;27.42;;;;;;;;;;5083231;28;20032;-68
2022/04/22 05:41:00;;;;;;;31.25;19.17;;;;;;;;;;5082378;28;21197;-74
2022/04/22 05:43:25;;;;;;;13.38;8.68;;;;;;;;;;5073176;28;20487;-68
2022/04/22 05:45:50;;;;;;;27.25;17.40;;;;;;;;;;5084185;28;20028;-71
2022/04/22 05:48:16;;;;;;;28.98;20.40;;;;;;;;;;5084413;28;20039;-68
2022/04/22 05:50:41;;;;;;;33.90;22.65;;;;;;;;;;5080728;28;20087;-67
2022/04/22 05:53:06;;;;;;;56.38;40.92;;;;;;;;;;5070337;28;20155;-71
2022/04/22 05:55:32;;;;;;;73.22;50.33;;;;;;;;;;5071346;28;20030;-77
2022/04/22 05:57:57;;;;;;;53.83;36.22;;;;;;;;;;5078901;28;21232;-69
2022/04/22 06:00:24;;;;;;;31.85;22.98;;;;;;;;;;5073048;28;20435;-77
2022/04/22 06:02:49;;;;;;;41.08;32.47;;;;;;;;;;5080949;28;20040;-71
2022/04/22 06:05:15;;;;;;;42.00;36.13;;;;;;;;;;5082932;28;20375;-71
2022/04/22 06:07:41;;;;;;;28.90;20.98;;;;;;;;;;5083192;28;20031;-68
2022/04/22 06:12:51;;;;;;;16.67;11.93;;;;;;;;;;5069874;28;20035;-75
2022/04/22 06:15:16;;;;;;;27.10;20.83;;;;;;;;;;5076025;28;20034;-75
2022/04/22 06:17:42;;;;;;;27.75;22.60;;;;;;;;;;5069209;28;20350;-75
2022/04/22 06:20:07;;;;;;;32.03;26.10;;;;;;;;;;5068043;28;20028;-77
2022/04/22 06:22:33;;;;;;;29.90;25.52;;;;;;;;;;5069945;28;20032;-73
2022/04/22 06:24:58;;;;;;;31.75;24.70;;;;;;;;;;5082773;28;20024;-73
2022/04/22 06:27:43;;;;;;;39.33;25.60;;;;;;;;;;5077415;28;20131;-72
2022/04/22 06:30:08;;;;;;;22.70;15.75;;;;;;;;;;5075980;28;20055;-69
2022/04/22 06:32:34;;;;;;;41.58;29.25;;;;;;;;;;5086162;28;20093;-68
2022/04/22 06:35:00;;;;;;;22.88;15.65;;;;;;;;;;5082906;28;20890;-68
2022/04/22 06:37:25;;;;;;;19.10;14.75;;;;;;;;;;5073500;28;20048;-67
2022/04/22 06:48:03;;;;;;;13.30;7.57;;;;;;;;;;5071750;28;20104;-71
2022/04/22 06:50:28;;;;;;;11.27;7.32;;;;;;;;;;5082073;28;20118;-69
2022/04/22 06:52:54;;;;;;;10.90;7.25;;;;;;;;;;5082777;28;20036;-72
2022/04/22 06:55:19;;;;;;;11.32;5.22;;;;;;;;;;5072912;28;20098;-74
2022/04/22 06:57:51;;;;;;;17.63;11.75;;;;;;;;;;5079158;28;20933;-71
2022/04/22 07:00:17;;;;;;;10.43;6.82;;;;;;;;;;5072495;28;20074;-71
2022/04/22 07:02:42;;;;;;;10.77;5.95;;;;;;;;;;5067063;28;20031;-69
2022/04/22 07:05:09;;;;;;;8.95;6.20;;;;;;;;;;5068489;28;20037;-69
2022/04/22 07:07:34;;;;;;;9.65;6.10;;;;;;;;;;5079778;28;20355;-69
2022/04/22 07:10:00;;;;;;;13.68;6.75;;;;;;;;;;5080988;28;20028;-69
2022/04/22 07:12:26;;;;;;;13.40;6.63;;;;;;;;;;5081546;28;20036;-69
2022/04/22 07:14:57;;;;;;;8.85;6.35;;;;;;;;;;5056902;28;20335;-73
2022/04/22 07:17:22;;;;;;;10.25;5.85;;;;;;;;;;5068829;28;20016;-76
2022/04/22 07:19:48;;;;;;;16.90;9.73;;;;;;;;;;5074644;28;20024;-73
2022/04/22 07:22:13;;;;;;;9.35;5.95;;;;;;;;;;5081871;28;20369;-71
2022/04/22 07:24:38;;;;;;;19.52;13.30;;;;;;;;;;5074607;28;20061;-77
2022/04/22 07:27:04;;;;;;;12.27;8.52;;;;;;;;;;5067957;28;20027;-77
2022/04/22 07:29:33;;;;;;;15.27;9.60;;;;;;;;;;5065164;28;20032;-73
2022/04/22 07:31:58;;;;;;;15.77;7.15;;;;;;;;;;5067322;28;20054;-71
2022/04/22 07:34:23;;;;;;;12.18;5.97;;;;;;;;;;5080168;28;20447;-69
2022/04/22 07:36:49;;;;;;;9.18;5.55;;;;;;;;;;5082161;28;20499;-75
2022/04/22 07:39:14;;;;;;;18.77;9.02;;;;;;;;;;5081558;28;20028;-71
2022/04/22 07:41:40;;;;;;;14.52;8.75;;;;;;;;;;5082671;28;20304;-76
2022/04/22 07:46:58;;;;;;;14.80;7.63;;;;;;;;;;5070905;28;20143;-72
2022/04/22 07:49:23;;;;;;;11.70;7.07;;;;;;;;;;5074137;28;20027;-72
2022/04/22 07:51:49;;;;;;;8.73;6.35;;;;;;;;;;5078643;28;20126;-74
2022/04/22 07:54:15;;;;;;;8.38;6.95;;;;;;;;;;5081744;28;20047;-70
2022/04/22 07:56:41;;;;;;;12.35;7.75;;;;;;;;;;5067944;28;20028;-69
2022/04/22 07:59:07;;;;;;;12.90;7.22;;;;;;;;;;5070297;28;20066;-74
2022/04/22 08:01:32;;;;;;;9.13;6.07;;;;;;;;;;5079841;28;20051;-71
2022/04/22 08:03:59;;;;;;;8.65;5.97;;;;;;;;;;5080966;28;20342;-73
2022/04/22 08:06:24;;;;;;;7.65;5.88;;;;;;;;;;5082614;28;20081;-73
2022/04/22 08:08:49;;;;;;;14.85;6.57;;;;;;;;;;5079898;28;20028;-72
2022/04/22 08:11:15;;;;;;;9.45;5.70;;;;;;;;;;5065726;28;20421;-71
2022/04/22 08:13:41;;;;;;;10.32;6.35;;;;;;;;;;5065723;28;20084;-78
2022/04/22 08:16:07;;;;;;;11.95;4.68;;;;;;;;;;5066538;28;20453;-72
2022/04/22 08:18:32;;;;;;;8.35;4.63;;;;;;;;;;5048866;28;20036;-71
2022/04/22 08:20:58;;;;;;;8.82;4.70;;;;;;;;;;5067852;28;20456;-70
2022/04/22 08:23:23;;;;;;;11.82;6.47;;;;;;;;;;5066895;28;20108;-70
2022/04/22 08:25:48;;;;;;;14.75;7.97;;;;;;;;;;5066596;28;20358;-70
2022/04/22 08:28:14;;;;;;;15.30;8.25;;;;;;;;;;5065615;28;20020;-71
2022/04/22 08:30:39;;;;;;;14.35;7.43;;;;;;;;;;5079204;28;20063;-73
2022/04/22 08:33:05;;;;;;;11.70;6.00;;;;;;;;;;5082009;28;20482;-72
2022/04/22 08:35:31;;;;;;;6.65;4.13;;;;;;;;;;5081206;28;20043;-76
2022/04/22 08:37:59;;;;;;;9.02;5.45;;;;;;;;;;5081681;28;20435;-78
2022/04/22 08:40:25;;;;;;;9.48;5.10;;;;;;;;;;5080226;28;20036;-68
2022/04/22 08:42:51;;;;;;;7.88;5.65;;;;;;;;;;5080002;28;23022;-69
2022/04/22 08:45:16;;;;;;;12.20;6.65;;;;;;;;;;5076519;28;20031;-68
2022/04/22 08:50:26;;;;;;;13.27;8.50;;;;;;;;;;5071174;28;20034;-68
2022/04/22 08:52:56;;;;;;;10.40;8.23;;;;;;;;;;5082904;28;20111;-73
2022/04/22 08:55:21;;;;;;;;;;;;;;;;;;5074107;28;20027;-72
2022/04/22 08:57:47;;;;;;;9.07;5.83;;;;;;;;;;5074343;28;20007;-70
2022/04/22 09:00:13;;;;;;;9.13;5.40;;;;;;;;;;5079028;28;20046;-73
2022/04/22 09:02:38;;;;;;;11.60;6.00;;;;;;;;;;5067309;28;20024;-73
2022/04/22 09:05:06;;;;;;;8.15;4.60;;;;;;;;;;5065477;28;20074;-74
2022/04/22 09:07:32;;;;;;;7.40;5.35;;;;;;;;;;5042617;28;20057;-76
2022/04/22 09:09:57;;;;;;;7.53;5.43;;;;;;;;;;5058759;28;20063;-75
2022/04/22 09:12:24;;;;;;;10.63;5.32;;;;;;;;;;5061444;28;20028;-70
2022/04/22 09:14:51;;;;;;;9.73;5.40;;;;;;;;;;5059816;28;20047;-79
2022/04/22 09:17:21;;;;;;;12.82;6.38;;;;;;;;;;5041367;28;23322;-70
2022/04/22 09:19:46;;;;;;;9.00;5.60;;;;;;;;;;5065656;28;20180;-74
2022/04/22 09:22:17;;;;;;;12.20;5.95;;;;;;;;;;5068039;28;20508;-72
2022/04/22 09:24:49;;;;;;;8.38;5.20;;;;;;;;;;5048744;28;21122;-71
2022/04/22 09:27:15;;;;;;;9.68;5.95;;;;;;;;;;5051193;28;20460;-69
2022/04/22 09:29:51;;;;;;;15.13;6.60;;;;;;;;;;5067784;28;20061;-72
2022/04/22 09:32:29;;;;;;;11.55;6.97;;;;;;;;;;5065032;28;20091;-72
2022/04/22 09:34:56;;;;;;;8.88;5.90;;;;;;;;;;5068492;28;20458;-72
2022/04/22 09:42:53;;;;;;;10.55;6.38;;;;;;;;;;5066903;28;20046;-76
2022/04/22 09:45:19;;;;;;;10.50;4.80;;;;;;;;;;5067280;28;20032;-72
2022/04/22 09:47:54;;;;;;;12.55;6.60;;;;;;;;;;5069148;28;20279;-73
2022/04/22 09:50:37;;;;;;;11.27;5.82;;;;;;;;;;5050973;28;20032;-77
2022/04/22 09:53:02;;;;;;;12.15;6.10;;;;;;;;;;5067002;28;20036;-79
2022/04/22 09:55:30;;;;;;;15.10;6.97;;;;;;;;;;5069276;28;20035;-76
2022/04/22 09:57:56;;;;;;;9.75;7.00;;;;;;;;;;5064938;28;20020;-73
2022/04/22 10:00:25;;;;;;;13.02;7.00;;;;;;;;;;5069048;28;20024;-69
2022/04/22 10:02:52;;;;;;;22.63;17.00;;;;;;;;;;5068479;28;20431;-68
2022/04/22 10:05:24;;;;;;;7.20;5.97;;;;;;;;;;5075396;28;20052;-73
2022/04/22 10:07:53;;;;;;;24.13;15.57;;;;;;;;;;5068846;28;20016;-72
2022/04/22 10:10:22;;;;;;;14.45;11.00;;;;;;;;;;5068313;28;20032;-71
2022/04/22 10:12:48;;;;;;;;;;;;;;;;;;5072604;28;20438;-72
2022/04/22 10:15:15;;;;;;;13.33;8.37;;;;;;;;;;5078973;28;19912;-70
2022/04/22 10:17:40;;;;;;;10.00;7.25;;;;;;;;;;5068398;28;20051;-71
2022/04/22 10:20:07;;;;;;;15.93;10.02;;;;;;;;;;5068482;28;20459;-70
2022/04/22 10:22:33;;;;;;;16.23;9.23;;;;;;;;;;5078419;28;20039;-71
2022/04/22 10:25:01;;;;;;;18.77;13.13;;;;;;;;;;5052472;28;20090;-74
2022/04/22 10:27:26;;;;;;;14.73;8.25;;;;;;;;;;5066912;28;20455;-68
2022/04/22 10:29:52;;;;;;;15.38;8.95;;;;;;;;;;5072419;28;20035;-69
2022/04/22 10:32:18;;;;;;;14.68;8.48;;;;;;;;;;5067295;28;20143;-73
2022/04/22 10:34:44;;;;;;;10.98;7.28;;;;;;;;;;5069832;28;20101;-76
2022/04/22 10:37:18;;;;;;;14.45;10.23;;;;;;;;;;5069256;28;20432;-76
2022/04/22 10:39:48;;;;;;;13.50;9.02;;;;;;;;;;5068540;28;20382;-72
2022/04/22 10:42:13;;;;;;;;;;;;;;;;;;5064854;28;20057;-68
2022/04/22 10:47:40;;;;;;;10.02;7.13;;;;;;;;;;5068697;28;20035;-78
2022/04/22 10:50:25;;;;;;;10.80;6.47;;;;;;;;;;5051857;28;20432;-70
2022/04/22 10:53:03;;;;;;;15.23;9.05;;;;;;;;;;5066106;28;20031;-73
2022/04/22 10:55:34;;;;;;;17.47;11.77;;;;;;;;;;5066333;28;20469;-69
2022/04/22 10:58:12;;;;;;;14.20;10.25;;;;;;;;;;5068489;28;20032;-68
2022/04/22 11:00:39;;;;;;;12.13;7.35;;;;;;;;;;5065589;28;20032;-73
2022/04/22 11:03:09;;;;;;;9.60;6.07;;;;;;;;;;5066827;28;20439;-73
2022/04/22 11:05:35;;;;;;;10.85;6.70;;;;;;;;;;5068545;28;20044;-71
2022/04/22 11:08:01;;;;;;;10.23;6.65;;;;;;;;;;5068163;28;20028;-72
2022/04/22 11:10:29;;;;;;;13.18;8.15;;;;;;;;;;5070803;28;20028;-72
2022/04/22 11:12:54;;;;;;;9.77;5.85;;;;;;;;;;5074445;28;20173;-72
2022/04/22 11:15:38;;;;;;;8.80;6.68;;;;;;;;;;5067054;28;20377;-72
2022/04/22 11:18:03;;;;;;;10.25;6.10;;;;;;;;;;5068357;28;20035;-72
2022/04/22 11:20:29;;;;;;;10.95;7.40;;;;;;;;;;5063914;28;20027;-72
2022/04/22 11:22:58;;;;;;;10.98;6.20;;;;;;;;;;5069008;28;20028;-71
2022/04/22 11:25:26;;;;;;;9.88;5.72;;;;;;;;;;5081062;28;20024;-75
2022/04/22 11:27:55;;;;;;;10.27;6.47;;;;;;;;;;5077300;28;20028;-77
2022/04/22 11:30:22;;;;;;;9.48;6.18;;;;;;;;;;5049204;28;20331;-75
2022/04/22 11:32:49;;;;;;;9.15;5.70;;;;;;;;;;5069551;28;20463;-70
2022/04/22 11:35:21;;;;;;;9.30;6.05;;;;;;;;;;5068485;28;20042;-76
2022/04/22 11:38:00;;;;;;;6.57;4.80;;;;;;;;;;5066405;28;20039;-75
2022/04/22 11:40:25;;;;;;;8.43;4.47;;;;;;;;;;5067804;28;20051;-74
2022/04/22 11:42:54;;;;;;;7.13;4.65;;;;;;;;;;5079696;28;20530;-73
2022/04/22 11:45:20;;;;;;;7.25;4.97;;;;;;;;;;5080903;28;20116;-71
2022/04/22 11:47:45;;;;;;;7.15;4.80;;;;;;;;;;5082304;28;20119;-69
2022/04/22 11:50:20;;;;;;;9.27;6.30;;;;;;;;;;5081258;28;20039;-70
2022/04/22 11:52:53;;;;;;;6.55;4.65;;;;;;;;;;5080589;28;20084;-71
2022/04/22 11:55:20;;;;;;;10.30;6.10;;;;;;;;;;5081542;28;20460;-76
2022/04/22 11:57:45;;;;;;;8.50;4.75;;;;;;;;;;5080992;28;20032;-71
2022/04/22 12:05:57;;;;;;;8.20;5.15;;;;;;;;;;5081017;28;20063;-71
2022/04/22 12:08:23;;;;;;;11.43;4.43;;;;;;;;;;5081984;28;20089;-73
2022/04/22 12:10:49;;;;;;;7.30;3.92;;;;;;;;;;5081509;28;20031;-73
2022/04/22 12:13:15;;;;;;;8.57;3.75;;;;;;;;;;5081711;28;20062;-72
2022/04/22 12:15:45;;;;;;;9.25;4.72;;;;;;;;;;5082580;28;20064;-72
2022/04/22 12:18:29;;;;;;;7.72;4.07;;;;;;;;;;5081423;28;20395;-73
2022/04/22 12:20:55;;;;;;;9.02;4.00;;;;;;;;;;5080317;28;20032;-75
2022/04/22 12:23:21;;;;;;;7.00;4.15;;;;;;;;;;5083380;28;20055;-70
2022/04/22 12:25:55;;;;;;;7.15;4.53;;;;;;;;;;5066924;28;20466;-70
2022/04/22 12:28:21;;;;;;;11.32;4.32;;;;;;;;;;5085887;28;20032;-71
2022/04/22 12:30:46;;;;;;;8.77;4.22;;;;;;;;;;5085643;28;20039;-70
2022/04/22 12:33:19;;;;;;;8.30;4.00;;;;;;;;;;5085024;28;20081;-70
2022/04/22 12:35:49;;;;;;;7.35;4.50;;;;;;;;;;5085001;28;20020;-72
2022/04/22 12:38:15;;;;;;;8.45;5.03;;;;;;;;;;5085311;28;20035;-72
2022/04/22 12:40:58;;;;;;;6.18;3.90;;;;;;;;;;5083107;28;20039;-72
2022/04/22 12:43:31;;;;;;;10.30;4.93;;;;;;;;;;5085645;28;20031;-77
2022/04/22 12:52:09;;;;;;;13.50;6.20;;;;;;;;;;5085447;28;20038;-72
2022/04/22 12:54:35;;;;;;;10.25;5.50;;;;;;;;;;5085065;28;20142;-74
2022/04/22 12:57:01;;;;;;;10.63;6.05;;;;;;;;;;5068115;28;20012;-71
2022/04/22 12:59:43;;;;;;;9.10;5.50;;;;;;;;;;5083875;28;20336;-71
2022/04/22 13:02:09;;;;;;;6.80;4.53;;;;;;;;;;5085335;28;20034;-70
2022/04/22 13:04:48;;;;;;;8.07;5.82;;;;;;;;;;5084954;28;20052;-71
2022/04/22 13:07:13;;;;;;;8.38;4.60;;;;;;;;;;5085167;28;20039;-71
2022/04/22 13:09:38;;;;;;;13.13;5.55;;;;;;;;;;5084620;28;20194;-78
2022/04/22 13:12:04;;;;;;;11.93;5.05;;;;;;;;;;5084914;28;20028;-74
2022/04/22 13:14:29;;;;;;;8.02;4.82;;;;;;;;;;5085143;28;20051;-71
2022/04/22 13:16:55;;;;;;;8.35;5.47;;;;;;;;;;5085133;28;21085;-71
2022/04/22 13:19:20;;;;;;;14.43;6.00;;;;;;;;;;5083957;28;20028;-71
2022/04/22 13:21:45;;;;;;;10.10;5.18;;;;;;;;;;5084699;28;20027;-71
2022/04/22 13:24:10;;;;;;;10.00;5.25;;;;;;;;;;5084505;28;20063;-72
2022/04/22 13:26:37;;;;;;;5.97;4.70;;;;;;;;;;5083689;28;20077;-69
2022/04/22 13:29:04;;;;;;;8.32;4.93;;;;;;;;;;5083211;28;20036;-77
2022/04/22 13:31:29;;;;;;;17.10;10.60;;;;;;;;;;5069548;28;20035;-71
2022/04/22 13:33:54;;;;;;;13.25;8.00;;;;;;;;;;5065701;28;20034;-73
2022/04/22 13:36:20;;;;;;;12.05;5.88;;;;;;;;;;5067554;28;20294;-70
2022/04/22 13:38:45;;;;;;;11.80;5.13;;;;;;;;;;5069876;28;20024;-72
2022/04/22 13:41:10;;;;;;;11.02;4.97;;;;;;;;;;5070244;28;20039;-70
2022/04/22 13:43:36;;;;;;;9.43;4.53;;;;;;;;;;5067912;28;20185;-71
2022/04/22 13:54:14;;;;;;;10.05;4.65;;;;;;;;;;5067937;28;20063;-72
2022/04/22 13:56:40;;;;;;;10.57;4.78;;;;;;;;;;5066955;28;20028;-71
2022/04/22 13:59:05;;;;;;;8.13;4.57;;;;;;;;;;5068745;28;20154;-71
2022/04/22 14:01:30;;;;;;;7.82;4.30;;;;;;;;;;5069820;28;20239;-71
2022/04/22 14:03:56;;;;;;;13.45;6.20;;;;;;;;;;5067466;28;20468;-78
2022/04/22 14:06:21;;;;;;;15.05;8.98;;;;;;;;;;5069645;28;20028;-72
2022/04/22 14:08:46;;;;;;;20.15;9.93;;;;;;;;;;5067208;28;20043;-72
2022/04/22 14:11:12;;;;;;;65.32;35.85;;;;;;;;;;5068542;28;20036;-76
2022/04/22 14:13:38;;;;;;;39.97;25.02;;;;;;;;;;5066673;28;20039;-72
2022/04/22 14:16:03;;;;;;;13.05;7.32;;;;;;;;;;5066437;28;20402;-71
2022/04/22 14:18:31;;;;;;;14.88;6.53;;;;;;;;;;5067027;28;20099;-71
2022/04/22 14:20:59;;;;;;;13.55;6.63;;;;;;;;;;5067606;28;20119;-78
2022/04/22 14:23:24;;;;;;;8.27;4.90;;;;;;;;;;5068164;28;20032;-70
2022/04/22 14:25:50;;;;;;;11.88;6.00;;;;;;;;;;5067839;28;20153;-70
2022/04/22 14:28:15;;;;;;;18.55;8.98;;;;;;;;;;5068028;28;20032;-69
2022/04/22 14:30:41;;;;;;;16.05;7.80;;;;;;;;;;5066701;28;20032;-74
2022/04/22 14:33:06;;;;;;;19.95;10.45;;;;;;;;;;5066128;28;20031;-73
2022/04/22 14:35:32;;;;;;;13.27;7.10;;;;;;;;;;5066425;28;20421;-72
2022/04/22 14:37:58;;;;;;;7.28;4.88;;;;;;;;;;5067876;28;20024;-76
2022/04/22 14:40:23;;;;;;;17.13;5.32;;;;;;;;;;5068657;28;20092;-71
2022/04/22 14:42:50;;;;;;;13.52;6.15;;;;;;;;;;5078488;28;20031;-72
2022/04/22 14:45:16;;;;;;;11.07;6.18;;;;;;;;;;5082996;28;20020;-72
2022/04/22 14:47:41;;;;;;;12.32;5.68;;;;;;;;;;5082077;28;20336;-76
2022/04/22 14:50:08;;;;;;;11.55;4.75;;;;;;;;;;5072152;28;20036;-72
2022/04/22 14:52:34;;;;;;;14.00;5.93;;;;;;;;;;5061255;28;20034;-69
2022/04/22 14:54:59;;;;;;;12.95;5.20;;;;;;;;;;5051356;28;20031;-70
2022/04/22 14:57:24;;;;;;;12.68;4.97;;;;;;;;;;5061124;28;20020;-72
2022/04/22 14:59:50;;;;;;;14.90;5.70;;;;;;;;;;5087573;28;20031;-71
2022/04/22 15:02:15;;;;;;;14.50;6.20;;;;;;;;;;5086676;28;20088;-76
2022/04/22 15:04:40;;;;;;;15.25;6.80;;;;;;;;;;5084690;28;20033;-71
2022/04/22 15:07:05;;;;;;;11.20;5.30;;;;;;;;;;5093758;28;20027;-71
2022/04/22 15:09:31;;;;;;;16.42;6.22;;;;;;;;;;5093130;28;20031;-73
2022/04/22 15:11:56;;;;;;;17.42;7.43;;;;;;;;;;5092559;28;20036;-70
2022/04/22 15:14:22;;;;;;;16.83;6.70;;;;;;;;;;5088837;28;20754;-71
2022/04/22 15:16:47;;;;;;;18.27;6.40;;;;;;;;;;5088451;28;20028;-71
2022/04/22 15:24:40;;;;;;;46.95;19.30;;;;;;;;;;5090557;28;20158;-70
2022/04/22 15:27:06;;;;;;;21.85;8.82;;;;;;;;;;5089826;28;20456;-69
2022/04/22 15:29:32;;;;;;;9.88;5.28;;;;;;;;;;5091030;28;20031;-78
2022/04/22 15:31:58;;;;;;;9.75;5.40;;;;;;;;;;5066366;28;20035;-72
2022/04/22 15:34:24;;;;;;;12.43;5.75;;;;;;;;;;5077811;28;20084;-72
2022/04/22 15:36:49;;;;;;;10.93;5.80;;;;;;;;;;5068480;28;20026;-71
2022/04/22 15:39:15;;;;;;;9.65;5.60;;;;;;;;;;5067910;28;20032;-73
2022/04/22 15:41:41;;;;;;;16.08;7.47;;;;;;;;;;5068468;28;20403;-71
2022/04/22 15:44:07;;;;;;;12.35;6.93;;;;;;;;;;5068559;28;20043;-72
2022/04/22 15:46:32;;;;;;;15.07;6.20;;;;;;;;;;5067135;28;20027;-74